Time;durP1;ratioP1;P1;durP2;ratioP2;P2;SDS_P1;SDS_P2;PMS_P1;PMS_P2;Temp;Humidity;BMP_temperature;BMP_pressure;BME280_temperature;BME280_humidity;BME280_pressure;Samples;Min_cycle;Max_cycle;Signal;HPM_P1;HPM_P2
2020/12/29 00:00:40;;;;;;;17.13;10.15;;;4.20;99.90;;;;;;5019541;28;20026;-80
2020/12/29 00:03:05;;;;;;;15.90;9.65;;;4.20;99.90;;;;;;5034711;28;20030;-81
2020/12/29 00:05:31;;;;;;;15.70;10.23;;;4.20;99.90;;;;;;5011131;28;20471;-81
2020/12/29 00:07:56;;;;;;;16.92;10.10;;;4.10;99.90;;;;;;4991890;28;20031;-81
2020/12/29 00:10:23;;;;;;;18.05;10.85;;;4.10;99.90;;;;;;4997737;28;20030;-80
2020/12/29 00:12:49;;;;;;;18.45;10.98;;;4.10;99.90;;;;;;4992997;28;20371;-80
2020/12/29 00:15:15;;;;;;;18.20;10.77;;;4.10;99.90;;;;;;4993609;28;20066;-80
2020/12/29 00:17:41;;;;;;;20.48;10.95;;;4.10;99.90;;;;;;4995249;28;20038;-79
2020/12/29 00:20:08;;;;;;;17.75;11.00;;;4.10;99.90;;;;;;4996146;28;20018;-80
2020/12/29 00:22:34;;;;;;;17.48;10.00;;;4.10;99.90;;;;;;4996408;28;20026;-80
2020/12/29 00:25:02;;;;;;;17.90;10.45;;;4.20;99.90;;;;;;4996895;28;20083;-80
2020/12/29 00:27:27;;;;;;;17.27;10.13;;;4.20;99.90;;;;;;4993264;28;20034;-80
2020/12/29 00:29:53;;;;;;;19.35;11.05;;;4.20;99.90;;;;;;4995899;28;20038;-80
2020/12/29 00:32:20;;;;;;;20.08;11.05;;;4.30;99.90;;;;;;4989493;28;20034;-79
2020/12/29 00:34:47;;;;;;;16.77;9.55;;;4.30;99.90;;;;;;4991637;28;20471;-80
2020/12/29 00:37:13;;;;;;;18.98;10.43;;;4.30;99.90;;;;;;4982977;28;20563;-80
2020/12/29 00:39:39;;;;;;;19.58;10.50;;;4.40;99.90;;;;;;4993113;28;20027;-79
2020/12/29 00:42:05;;;;;;;22.73;10.77;;;4.30;99.90;;;;;;4994723;28;20493;-79
2020/12/29 00:44:30;;;;;;;22.00;10.30;;;4.30;99.90;;;;;;4994484;28;20434;-79
2020/12/29 00:46:56;;;;;;;18.73;11.50;;;4.30;99.90;;;;;;4995303;28;20064;-79
2020/12/29 00:49:22;;;;;;;18.15;10.48;;;4.40;99.90;;;;;;4991057;28;20031;-79
2020/12/29 00:51:47;;;;;;;17.75;9.70;;;4.40;99.90;;;;;;4994478;28;20034;-80
2020/12/29 00:54:13;;;;;;;16.90;9.85;;;4.40;99.90;;;;;;4994516;28;20045;-80
2020/12/29 00:56:38;;;;;;;20.63;10.65;;;4.40;99.90;;;;;;4994505;28;20035;-80
2020/12/29 00:59:04;;;;;;;17.35;10.27;;;4.40;99.90;;;;;;4993279;28;20113;-80
2020/12/29 01:01:30;;;;;;;17.67;9.65;;;4.40;99.90;;;;;;4993941;28;20037;-80
2020/12/29 01:03:55;;;;;;;20.85;11.02;;;4.40;99.90;;;;;;4993949;28;20038;-80
2020/12/29 01:06:28;;;;;;;20.02;9.98;;;4.40;99.90;;;;;;4994697;28;20057;-80
2020/12/29 01:08:53;;;;;;;19.65;10.25;;;4.40;99.90;;;;;;4993637;28;20026;-80
2020/12/29 01:11:19;;;;;;;17.25;10.25;;;4.40;99.90;;;;;;4986651;28;20019;-80
2020/12/29 01:13:46;;;;;;;19.55;10.82;;;4.40;99.90;;;;;;4995023;28;20057;-81
2020/12/29 01:16:12;;;;;;;16.70;10.60;;;4.40;99.90;;;;;;4994744;28;20061;-80
2020/12/29 01:18:38;;;;;;;20.00;10.68;;;4.40;99.90;;;;;;4975793;28;20473;-80
2020/12/29 01:21:05;;;;;;;21.38;10.75;;;4.40;99.90;;;;;;4993550;28;20866;-80
2020/12/29 01:23:32;;;;;;;20.27;10.93;;;4.40;99.90;;;;;;4994698;28;20030;-80
2020/12/29 01:25:58;;;;;;;19.83;10.18;;;4.40;99.90;;;;;;4994650;28;20026;-80
2020/12/29 01:28:23;;;;;;;18.73;10.75;;;4.50;99.90;;;;;;4994282;28;20085;-80
2020/12/29 01:30:49;;;;;;;22.33;10.88;;;4.50;99.90;;;;;;4989680;28;20461;-80
2020/12/29 01:33:15;;;;;;;19.05;10.98;;;4.50;99.90;;;;;;4995019;28;20085;-79
2020/12/29 01:35:40;;;;;;;19.75;11.25;;;4.50;99.90;;;;;;4995838;28;20027;-80
2020/12/29 01:38:06;;;;;;;18.73;10.50;;;4.50;99.90;;;;;;4996738;28;20030;-80
2020/12/29 01:40:33;;;;;;;22.42;10.45;;;4.50;99.90;;;;;;5009266;28;20043;-80
2020/12/29 01:42:59;;;;;;;12.97;7.77;;;4.50;99.90;;;;;;5016889;28;20038;-80
2020/12/29 01:45:25;;;;;;;19.55;10.90;;;4.50;99.90;;;;;;5010204;28;20022;-80
2020/12/29 01:47:52;;;;;;;19.33;10.77;;;4.60;99.90;;;;;;5003526;28;20014;-80
2020/12/29 01:50:23;;;;;;;20.45;11.45;;;4.50;99.90;;;;;;5015602;28;20021;-74
2020/12/29 01:53:00;;;;;;;20.50;12.07;;;4.50;99.90;;;;;;4997432;28;20057;-81
2020/12/29 01:55:28;;;;;;;23.75;13.10;;;4.50;99.90;;;;;;4995779;28;20509;-81
2020/12/29 01:57:59;;;;;;;19.27;11.98;;;4.40;99.90;;;;;;4990712;28;20022;-81
2020/12/29 02:00:25;;;;;;;23.98;13.20;;;4.40;99.90;;;;;;4993778;28;20117;-80
2020/12/29 02:02:51;;;;;;;19.25;11.57;;;4.40;99.90;;;;;;4989951;28;20378;-80
2020/12/29 02:05:17;;;;;;;20.73;12.13;;;4.40;99.90;;;;;;4992931;28;20038;-81
2020/12/29 02:07:46;;;;;;;23.35;13.13;;;4.40;99.90;;;;;;4993525;28;20049;-81
2020/12/29 02:10:12;;;;;;;23.67;13.13;;;4.50;99.90;;;;;;4988389;28;20549;-81
2020/12/29 02:12:37;;;;;;;25.73;13.57;;;4.50;99.90;;;;;;4991969;28;20038;-81
2020/12/29 02:15:07;;;;;;;21.83;13.35;;;4.40;99.90;;;;;;4993558;28;20086;-81
2020/12/29 02:17:33;;;;;;;28.80;15.40;;;4.40;99.90;;;;;;4993938;28;20018;-80
2020/12/29 02:19:59;;;;;;;25.67;14.18;;;4.40;99.90;;;;;;5009681;28;20086;-80
2020/12/29 02:22:27;;;;;;;24.85;14.43;;;4.50;99.90;;;;;;4992779;28;20057;-81
2020/12/29 02:24:52;;;;;;;;;;;4.60;99.90;;;;;;4994648;28;20038;-81
2020/12/29 02:27:20;;;;;;;29.65;14.60;;;4.60;99.90;;;;;;4992403;28;19910;-81
2020/12/29 02:29:47;;;;;;;30.35;15.30;;;4.70;99.90;;;;;;4994035;28;20030;-81
2020/12/29 02:32:13;;;;;;;32.60;15.18;;;4.70;99.90;;;;;;4993612;28;20077;-81
2020/12/29 02:34:39;;;;;;;28.20;15.23;;;4.70;99.90;;;;;;4992950;28;20038;-81
2020/12/29 02:37:07;;;;;;;29.58;16.13;;;4.60;99.90;;;;;;4992732;28;20038;-81
2020/12/29 02:39:34;;;;;;;25.38;14.65;;;4.50;99.90;;;;;;4993489;28;20030;-81
2020/12/29 02:42:00;;;;;;;33.58;15.93;;;4.50;99.90;;;;;;4993672;28;20026;-81
2020/12/29 02:44:26;;;;;;;27.58;15.27;;;4.60;99.90;;;;;;4992329;28;20014;-82
2020/12/29 02:46:52;;;;;;;28.17;16.75;;;4.60;99.90;;;;;;4994128;28;20113;-81
2020/12/29 02:49:17;;;;;;;32.90;16.30;;;4.60;99.90;;;;;;4992455;28;20045;-81
2020/12/29 02:51:44;;;;;;;29.05;16.20;;;4.60;99.90;;;;;;4993750;28;20021;-81
2020/12/29 02:54:14;;;;;;;31.02;17.10;;;4.60;99.90;;;;;;4993026;28;20038;-81
2020/12/29 02:56:42;;;;;;;31.38;16.60;;;4.60;99.90;;;;;;4992512;28;20406;-80
2020/12/29 02:59:07;;;;;;;29.88;15.10;;;4.60;99.90;;;;;;4992516;28;20085;-81
2020/12/29 03:01:33;;;;;;;29.08;15.52;;;4.60;99.90;;;;;;4993674;28;20022;-81
2020/12/29 03:03:59;;;;;;;32.30;16.48;;;4.60;99.90;;;;;;4987299;28;20023;-81
2020/12/29 03:06:24;;;;;;;36.22;18.65;;;4.60;99.90;;;;;;4989322;28;20053;-80
2020/12/29 03:08:51;;;;;;;32.22;16.45;;;4.60;99.90;;;;;;4993592;28;20037;-80
2020/12/29 03:11:24;;;;;;;34.60;17.55;;;4.60;99.90;;;;;;5008057;28;20034;-80
2020/12/29 03:13:50;;;;;;;29.42;15.88;;;4.60;99.90;;;;;;4992416;28;20084;-80
2020/12/29 03:16:15;;;;;;;35.08;17.45;;;4.70;99.90;;;;;;4992273;28;20480;-81
2020/12/29 03:18:41;;;;;;;33.00;17.38;;;4.60;99.90;;;;;;4993300;28;20023;-80
2020/12/29 03:21:06;;;;;;;31.95;17.17;;;4.60;99.90;;;;;;4992106;28;20038;-81
2020/12/29 03:23:32;;;;;;;32.63;17.33;;;4.70;99.90;;;;;;4995087;28;20030;-81
2020/12/29 03:25:58;;;;;;;34.65;17.27;;;4.70;99.90;;;;;;4996087;28;20027;-81
2020/12/29 03:28:23;;;;;;;33.33;17.60;;;4.70;99.90;;;;;;4995396;28;20030;-81
2020/12/29 03:30:49;;;;;;;35.42;17.23;;;4.70;99.90;;;;;;4995963;28;20418;-80
2020/12/29 03:33:14;;;;;;;31.30;17.20;;;4.70;99.90;;;;;;4997877;28;20113;-80
2020/12/29 03:35:40;;;;;;;30.88;16.98;;;4.80;99.90;;;;;;4997488;28;20088;-80
2020/12/29 03:38:06;;;;;;;36.50;17.20;;;4.80;99.90;;;;;;5003315;28;20172;-81
2020/12/29 03:40:31;;;;;;;33.58;17.92;;;4.90;99.90;;;;;;5019162;28;20041;-80
2020/12/29 03:42:57;;;;;;;32.30;17.75;;;4.90;99.90;;;;;;5031558;28;20043;-80
2020/12/29 03:45:22;;;;;;;34.83;17.42;;;4.90;99.90;;;;;;5026885;28;20035;-80
2020/12/29 03:47:48;;;;;;;30.00;16.98;;;4.90;99.90;;;;;;5020951;28;20026;-81
2020/12/29 03:50:14;;;;;;;32.35;16.23;;;4.80;99.90;;;;;;5019931;28;20041;-81
2020/12/29 03:52:39;;;;;;;34.45;17.27;;;4.90;99.90;;;;;;5019954;28;20070;-81
2020/12/29 03:55:05;;;;;;;32.33;15.93;;;5.00;99.90;;;;;;5017395;28;20054;-78
2020/12/29 03:57:30;;;;;;;30.15;16.95;;;5.00;99.90;;;;;;4999395;28;20023;-81
2020/12/29 03:59:56;;;;;;;32.95;18.15;;;4.90;99.90;;;;;;4997664;28;20398;-80
2020/12/29 04:02:21;;;;;;;34.55;16.85;;;4.90;99.90;;;;;;4996198;28;20093;-81
2020/12/29 04:04:47;;;;;;;32.80;17.13;;;4.90;99.90;;;;;;4996449;28;20034;-80
2020/12/29 04:07:13;;;;;;;33.38;17.80;;;4.90;99.90;;;;;;4996176;28;20475;-79
2020/12/29 04:09:38;;;;;;;31.75;16.45;;;4.90;99.90;;;;;;4988210;28;20479;-80
2020/12/29 04:12:04;;;;;;;32.17;16.75;;;4.90;99.90;;;;;;4998485;28;20464;-80
2020/12/29 04:14:30;;;;;;;36.03;17.95;;;4.90;99.90;;;;;;4995762;28;20050;-81
2020/12/29 04:16:55;;;;;;;32.95;17.38;;;4.90;99.90;;;;;;4995670;28;20411;-80
2020/12/29 04:19:21;;;;;;;33.88;17.85;;;4.90;99.90;;;;;;4995334;28;20030;-80
2020/12/29 04:21:47;;;;;;;33.63;17.52;;;4.90;99.90;;;;;;4995131;28;20065;-80
2020/12/29 04:24:12;;;;;;;29.55;16.30;;;4.90;99.90;;;;;;4993920;28;20529;-80
2020/12/29 04:26:38;;;;;;;36.33;18.33;;;4.80;99.90;;;;;;4995068;28;20397;-81
2020/12/29 04:29:03;;;;;;;28.98;15.23;;;4.80;99.90;;;;;;4995974;28;20025;-81
2020/12/29 04:31:29;;;;;;;31.23;16.25;;;4.80;99.90;;;;;;4994565;28;20026;-81
2020/12/29 04:33:55;;;;;;;32.88;16.58;;;4.90;99.90;;;;;;4995826;28;20022;-80
2020/12/29 04:36:20;;;;;;;32.63;17.80;;;4.90;99.90;;;;;;4994923;28;20482;-80
2020/12/29 04:38:46;;;;;;;33.03;16.23;;;4.90;99.90;;;;;;4995931;28;20379;-80
2020/12/29 04:41:11;;;;;;;28.20;15.70;;;4.90;99.90;;;;;;4989725;28;20110;-80
2020/12/29 04:43:37;;;;;;;29.77;16.33;;;4.90;99.90;;;;;;4990663;28;20029;-79
2020/12/29 04:46:04;;;;;;;30.77;16.08;;;4.90;99.90;;;;;;4994479;28;20505;-80
2020/12/29 04:48:31;;;;;;;30.27;15.52;;;4.80;99.90;;;;;;4994425;28;20038;-80
2020/12/29 04:51:07;;;;;;;27.58;15.57;;;4.80;99.90;;;;;;4995851;28;20034;-79
2020/12/29 04:53:34;;;;;;;29.92;14.88;;;4.70;99.90;;;;;;4995437;28;20026;-79
2020/12/29 04:56:09;;;;;;;27.75;14.50;;;4.70;99.90;;;;;;4995542;28;20027;-80
2020/12/29 04:58:36;;;;;;;27.60;15.02;;;4.60;99.90;;;;;;4993999;28;20030;-79
2020/12/29 05:01:08;;;;;;;29.52;14.70;;;4.60;99.90;;;;;;4994192;28;20038;-79
2020/12/29 05:03:43;;;;;;;30.20;14.23;;;4.60;99.90;;;;;;4993783;28;20479;-79
2020/12/29 05:06:10;;;;;;;30.60;15.20;;;4.60;99.90;;;;;;4977506;28;20109;-79
2020/12/29 05:08:36;;;;;;;29.90;15.00;;;4.60;99.90;;;;;;4993943;28;20085;-79
2020/12/29 05:11:01;;;;;;;30.30;13.75;;;4.60;99.90;;;;;;4994805;28;20112;-79
2020/12/29 05:13:27;;;;;;;25.15;12.10;;;4.50;99.90;;;;;;4994671;28;20036;-80
2020/12/29 05:15:52;;;;;;;25.67;11.95;;;4.50;99.90;;;;;;4994975;28;20050;-79
2020/12/29 05:18:18;;;;;;;21.50;11.18;;;4.50;99.90;;;;;;4994138;28;20023;-79
2020/12/29 05:20:44;;;;;;;23.10;11.30;;;4.50;99.90;;;;;;4993505;28;20026;-78
2020/12/29 05:23:11;;;;;;;24.05;11.25;;;4.40;99.90;;;;;;5000943;28;20037;-79
2020/12/29 05:25:45;;;;;;;22.80;11.00;;;4.40;99.90;;;;;;5016323;28;20050;-79
2020/12/29 05:28:11;;;;;;;18.75;10.07;;;4.30;99.90;;;;;;5016207;28;20047;-79
2020/12/29 05:30:38;;;;;;;23.30;10.70;;;4.30;99.90;;;;;;5002685;28;20094;-80
2020/12/29 05:33:09;;;;;;;17.30;9.95;;;4.30;99.90;;;;;;5032611;28;20094;-80
2020/12/29 05:35:36;;;;;;;21.25;11.68;;;4.30;99.90;;;;;;5018327;28;20045;-80
2020/12/29 05:38:02;;;;;;;19.00;10.30;;;4.10;99.90;;;;;;5018353;28;20050;-79
2020/12/29 05:40:29;;;;;;;20.67;10.93;;;4.00;99.90;;;;;;4999183;28;20104;-79
2020/12/29 05:42:58;;;;;;;19.38;10.23;;;4.00;99.90;;;;;;4980222;28;20482;-79
2020/12/29 05:45:25;;;;;;;22.00;10.18;;;3.90;99.90;;;;;;4994254;28;20482;-79
2020/12/29 05:47:55;;;;;;;19.73;10.35;;;3.90;99.90;;;;;;4995143;28;20062;-79
2020/12/29 05:50:22;;;;;;;23.13;10.77;;;3.90;99.90;;;;;;4993648;28;20034;-79
2020/12/29 05:53:08;;;;;;;17.90;9.85;;;3.90;99.90;;;;;;4993554;28;20036;-79
2020/12/29 05:55:35;;;;;;;18.02;9.90;;;3.90;99.90;;;;;;4992947;28;20074;-79
2020/12/29 05:58:06;;;;;;;16.98;9.40;;;3.90;99.90;;;;;;4993807;28;20019;-79
2020/12/29 06:00:33;;;;;;;20.58;9.30;;;3.90;99.90;;;;;;4994126;28;20030;-79
2020/12/29 06:02:59;;;;;;;16.13;8.52;;;3.80;99.90;;;;;;4994319;28;20026;-79
2020/12/29 06:05:27;;;;;;;15.77;8.15;;;3.80;99.90;;;;;;4993291;28;20045;-79
2020/12/29 06:07:54;;;;;;;20.10;9.68;;;3.80;99.90;;;;;;4994282;28;20046;-79
2020/12/29 06:10:21;;;;;;;21.27;10.68;;;3.80;99.90;;;;;;4994546;28;20023;-79
2020/12/29 06:13:02;;;;;;;22.33;11.60;;;3.90;99.90;;;;;;4993032;28;20061;-79
2020/12/29 06:15:33;;;;;;;20.50;10.88;;;3.90;99.90;;;;;;4992994;28;20605;-79
2020/12/29 06:18:01;;;;;;;23.35;11.60;;;3.90;99.90;;;;;;4984834;28;20026;-80
2020/12/29 06:20:37;;;;;;;24.67;11.60;;;3.90;99.90;;;;;;4993896;28;20471;-81
2020/12/29 06:23:06;;;;;;;24.02;11.77;;;4.00;99.90;;;;;;4993197;28;20265;-81
2020/12/29 06:25:36;;;;;;;24.65;11.38;;;4.00;99.90;;;;;;4994080;28;20037;-80
2020/12/29 06:28:04;;;;;;;23.58;11.90;;;4.00;99.90;;;;;;4978453;28;20042;-80
2020/12/29 06:30:31;;;;;;;;;;;3.90;99.90;;;;;;4993220;28;20487;-80
2020/12/29 06:32:57;;;;;;;26.33;11.20;;;3.90;99.90;;;;;;4989511;28;20363;-80
2020/12/29 06:35:23;;;;;;;24.35;12.73;;;3.90;99.90;;;;;;4992933;28;20037;-81
2020/12/29 06:38:05;;;;;;;25.15;12.55;;;4.00;99.90;;;;;;4993180;28;20503;-80
2020/12/29 06:40:32;;;;;;;24.65;12.20;;;4.00;99.90;;;;;;4993127;28;20394;-80
2020/12/29 06:42:58;;;;;;;21.70;11.43;;;4.10;99.90;;;;;;4986514;28;20023;-81
2020/12/29 06:45:24;;;;;;;21.77;10.85;;;4.10;99.90;;;;;;4983673;28;20084;-79
2020/12/29 06:47:50;;;;;;;16.50;9.25;;;4.00;99.90;;;;;;4993992;28;20023;-79
2020/12/29 06:50:26;;;;;;;18.65;8.90;;;3.90;99.90;;;;;;4994215;28;20399;-79
2020/12/29 06:53:03;;;;;;;19.45;9.95;;;3.90;99.90;;;;;;4994025;28;20030;-80
2020/12/29 06:55:38;;;;;;;18.05;9.88;;;3.80;99.90;;;;;;4994570;28;20049;-80
2020/12/29 06:58:05;;;;;;;21.88;10.75;;;3.80;99.90;;;;;;5007252;28;20038;-80
2020/12/29 07:00:31;;;;;;;19.83;10.52;;;3.80;99.90;;;;;;5018948;28;20042;-80
2020/12/29 07:02:56;;;;;;;20.52;11.20;;;3.90;99.90;;;;;;5019990;28;20034;-79
2020/12/29 07:05:34;;;;;;;20.92;10.07;;;3.90;99.90;;;;;;5019316;28;20042;-79
2020/12/29 07:08:07;;;;;;;22.17;10.73;;;4.00;99.90;;;;;;5020439;28;20014;-81
2020/12/29 07:10:32;;;;;;;21.75;9.95;;;4.00;99.90;;;;;;5020920;28;20015;-81
2020/12/29 07:13:10;;;;;;;17.25;9.73;;;4.00;99.90;;;;;;5011726;28;20030;-80
2020/12/29 07:15:49;;;;;;;19.77;10.03;;;4.00;99.90;;;;;;4999032;28;20039;-80
2020/12/29 07:18:19;;;;;;;18.60;10.50;;;4.00;99.90;;;;;;4998222;28;20027;-81
2020/12/29 07:20:49;;;;;;;22.58;11.38;;;4.00;99.90;;;;;;4998097;28;20031;-80
2020/12/29 07:23:18;;;;;;;18.15;9.30;;;4.10;99.90;;;;;;4996844;28;20037;-80
2020/12/29 07:25:49;;;;;;;23.15;11.35;;;4.10;99.90;;;;;;5003451;28;20118;-80
2020/12/29 07:28:17;;;;;;;21.08;11.25;;;4.10;99.90;;;;;;4996600;28;20054;-80
2020/12/29 07:30:44;;;;;;;23.02;12.10;;;4.20;99.90;;;;;;4996909;28;20074;-80
2020/12/29 07:33:10;;;;;;;23.38;11.15;;;4.20;99.90;;;;;;4997244;28;20101;-80
2020/12/29 07:35:37;;;;;;;24.73;11.25;;;4.20;99.90;;;;;;4996774;28;20038;-80
2020/12/29 07:38:20;;;;;;;22.63;9.88;;;4.20;99.90;;;;;;4996716;28;20077;-80
2020/12/29 07:40:46;;;;;;;23.08;10.52;;;4.30;99.90;;;;;;4996396;28;20109;-80
2020/12/29 07:43:12;;;;;;;23.13;11.25;;;4.40;99.90;;;;;;4996140;28;20117;-80
2020/12/29 07:45:38;;;;;;;20.65;11.25;;;4.40;99.90;;;;;;4996827;28;20030;-80
2020/12/29 07:48:05;;;;;;;21.83;11.57;;;4.30;99.90;;;;;;4995288;28;20044;-80
2020/12/29 07:50:33;;;;;;;20.90;11.63;;;4.40;99.90;;;;;;4995651;28;20452;-80
2020/12/29 07:53:07;;;;;;;17.58;8.10;;;4.40;99.90;;;;;;4995881;28;20034;-80
2020/12/29 07:55:34;;;;;;;23.70;11.80;;;4.40;99.90;;;;;;4989678;28;20462;-80
2020/12/29 07:58:05;;;;;;;22.65;11.02;;;4.40;99.90;;;;;;4995603;28;20085;-80
2020/12/29 08:00:36;;;;;;;24.48;11.38;;;4.40;99.90;;;;;;5002467;28;20434;-80
2020/12/29 08:03:02;;;;;;;24.77;11.68;;;4.40;99.90;;;;;;4995183;28;20065;-80
2020/12/29 08:05:29;;;;;;;24.38;11.98;;;4.40;99.90;;;;;;4994828;28;20057;-80
2020/12/29 08:07:57;;;;;;;27.55;11.60;;;4.50;99.90;;;;;;4995471;28;20045;-80
2020/12/29 08:10:49;;;;;;;23.17;11.63;;;4.50;99.90;;;;;;4995019;28;20109;-79
2020/12/29 08:13:21;;;;;;;21.35;11.27;;;4.50;99.90;;;;;;4993739;28;20483;-79
2020/12/29 08:15:48;;;;;;;24.02;11.05;;;4.50;99.90;;;;;;4994103;28;20372;-79
2020/12/29 08:18:16;;;;;;;28.02;13.32;;;4.50;99.90;;;;;;4995970;28;20105;-80
2020/12/29 08:20:46;;;;;;;28.58;13.60;;;4.50;99.90;;;;;;4979251;28;20027;-80
2020/12/29 08:23:19;;;;;;;28.90;13.20;;;4.50;99.90;;;;;;4983512;28;20038;-81
2020/12/29 08:25:53;;;;;;;21.48;11.40;;;4.60;99.90;;;;;;4995008;28;20034;-80
2020/12/29 08:28:35;;;;;;;29.63;12.45;;;4.60;99.90;;;;;;4996160;28;20026;-79
2020/12/29 08:31:02;;;;;;;28.48;13.52;;;4.50;99.90;;;;;;4996465;28;20044;-80
2020/12/29 08:33:29;;;;;;;26.58;13.23;;;4.40;99.90;;;;;;5014763;28;20027;-80
2020/12/29 08:35:58;;;;;;;30.85;14.43;;;4.40;99.90;;;;;;5008765;28;20491;-80
2020/12/29 08:38:26;;;;;;;28.90;14.50;;;4.30;99.90;;;;;;5016864;28;20034;-79
2020/12/29 08:41:21;;;;;;;31.67;14.18;;;4.30;99.90;;;;;;5017615;28;20032;-79
2020/12/29 08:43:48;;;;;;;28.58;13.32;;;4.30;99.90;;;;;;5019038;28;20093;-81
2020/12/29 08:46:23;;;;;;;27.13;13.55;;;4.40;99.90;;;;;;5004951;28;20097;-80
2020/12/29 08:48:55;;;;;;;30.92;14.25;;;4.40;99.90;;;;;;4997465;28;20480;-80
2020/12/29 08:51:27;;;;;;;29.42;12.98;;;4.50;99.90;;;;;;4995552;28;20491;-80
2020/12/29 08:54:22;;;;;;;28.10;14.02;;;4.50;99.90;;;;;;4996549;28;20030;-81
2020/12/29 08:56:48;;;;;;;32.28;13.10;;;4.50;99.90;;;;;;4994964;28;20038;-81
2020/12/29 08:59:21;;;;;;;26.80;12.18;;;4.50;99.90;;;;;;4994398;28;20130;-81
2020/12/29 09:01:54;;;;;;;27.90;12.43;;;4.50;99.90;;;;;;4995585;28;20045;-81
2020/12/29 09:04:42;;;;;;;23.85;11.18;;;4.60;99.90;;;;;;4994862;28;20046;-80
2020/12/29 09:07:16;;;;;;;21.38;11.90;;;4.60;99.90;;;;;;4990581;28;20023;-80
2020/12/29 09:09:50;;;;;;;24.48;11.43;;;4.70;99.90;;;;;;4992838;28;20035;-80
2020/12/29 09:12:21;;;;;;;27.63;12.98;;;4.70;99.90;;;;;;4995353;28;20027;-80
2020/12/29 09:15:07;;;;;;;27.13;12.90;;;4.80;99.90;;;;;;4993667;28;20038;-80
2020/12/29 09:17:39;;;;;;;24.90;12.57;;;4.70;99.90;;;;;;4974361;28;20050;-79
2020/12/29 09:20:23;;;;;;;21.23;11.80;;;4.80;99.90;;;;;;4985152;28;20028;-80
2020/12/29 09:23:03;;;;;;;24.65;11.82;;;4.70;99.90;;;;;;4995112;28;20036;-80
2020/12/29 09:25:33;;;;;;;23.17;10.93;;;4.80;99.90;;;;;;4995267;28;20026;-80
2020/12/29 09:28:15;;;;;;;22.77;11.13;;;4.80;99.90;;;;;;4995129;28;20034;-82
2020/12/29 09:30:45;;;;;;;21.55;11.73;;;4.80;99.90;;;;;;4993189;28;20038;-81
2020/12/29 09:33:12;;;;;;;22.83;11.00;;;4.90;99.90;;;;;;5012283;28;20026;-80
2020/12/29 09:35:38;;;;;;;24.02;11.27;;;5.00;99.90;;;;;;4993756;28;20026;-82
2020/12/29 09:38:04;;;;;;;24.30;12.07;;;5.00;99.90;;;;;;4993695;28;20064;-80
2020/12/29 09:40:29;;;;;;;23.70;12.25;;;5.00;99.90;;;;;;4990675;28;20034;-81
2020/12/29 09:42:56;;;;;;;23.98;11.85;;;5.00;99.90;;;;;;4993444;28;20093;-81
2020/12/29 09:45:24;;;;;;;25.73;12.88;;;5.10;99.90;;;;;;4993440;28;20034;-80
2020/12/29 09:47:50;;;;;;;;;;;5.10;99.90;;;;;;4995013;28;20096;-81
2020/12/29 09:50:16;;;;;;;22.33;11.40;;;5.10;99.90;;;;;;4993384;28;19918;-79
2020/12/29 09:52:42;;;;;;;19.95;10.60;;;5.20;99.90;;;;;;4993407;28;20031;-79
2020/12/29 09:55:08;;;;;;;21.83;11.20;;;5.20;99.90;;;;;;4986356;28;20438;-83
2020/12/29 09:57:34;;;;;;;22.00;10.77;;;5.30;99.90;;;;;;5001325;28;20105;-82
2020/12/29 10:00:00;;;;;;;21.67;11.05;;;5.30;99.90;;;;;;4992921;28;20042;-79
2020/12/29 10:02:25;;;;;;;23.38;11.45;;;5.30;99.90;;;;;;4993160;28;20547;-80
2020/12/29 10:04:51;;;;;;;21.15;12.13;;;5.30;99.90;;;;;;4995038;28;20093;-79
2020/12/29 10:07:17;;;;;;;25.13;10.98;;;5.30;99.90;;;;;;4994329;28;20101;-82
2020/12/29 10:09:43;;;;;;;24.27;11.40;;;5.30;99.90;;;;;;4990568;28;20061;-76
2020/12/29 10:12:08;;;;;;;18.77;10.55;;;5.40;99.90;;;;;;4994506;28;20038;-80
2020/12/29 10:14:34;;;;;;;20.23;10.82;;;5.30;99.90;;;;;;4992376;28;20049;-81
2020/12/29 10:17:01;;;;;;;24.85;11.63;;;5.30;99.90;;;;;;4995187;28;20038;-79
2020/12/29 10:19:26;;;;;;;21.35;10.63;;;5.40;99.90;;;;;;4999414;28;20558;-79
2020/12/29 10:21:56;;;;;;;21.02;10.40;;;5.40;99.90;;;;;;5016080;28;20026;-80
2020/12/29 10:24:23;;;;;;;18.02;10.38;;;5.40;99.90;;;;;;5016214;28;20073;-80
2020/12/29 10:26:50;;;;;;;20.23;10.55;;;5.50;99.90;;;;;;5017617;28;20078;-80
2020/12/29 10:29:17;;;;;;;23.67;10.68;;;5.50;99.90;;;;;;5018537;28;20065;-79
2020/12/29 10:31:42;;;;;;;18.95;9.98;;;5.50;99.90;;;;;;5019404;28;20045;-79
2020/12/29 10:34:14;;;;;;;16.83;9.40;;;5.60;99.90;;;;;;5021921;28;20420;-80
2020/12/29 10:36:41;;;;;;;18.23;9.18;;;5.60;99.90;;;;;;5021409;28;20058;-79
2020/12/29 10:39:08;;;;;;;22.30;10.13;;;5.60;99.90;;;;;;4997986;28;20368;-80
2020/12/29 10:41:35;;;;;;;21.77;10.48;;;5.60;99.90;;;;;;4983587;28;20031;-78
2020/12/29 10:44:02;;;;;;;17.57;9.87;;;5.60;99.90;;;;;;4981673;28;20037;-80
2020/12/29 10:46:28;;;;;;;18.00;9.73;;;5.60;99.90;;;;;;4997677;28;20513;-79
2020/12/29 10:48:53;;;;;;;17.95;9.95;;;5.70;99.90;;;;;;4999470;28;20054;-80
2020/12/29 10:51:24;;;;;;;18.23;9.95;;;5.60;99.90;;;;;;4997310;28;20030;-80
2020/12/29 10:53:51;;;;;;;19.40;10.32;;;5.60;99.90;;;;;;4998917;28;20391;-82
2020/12/29 10:56:17;;;;;;;17.25;10.25;;;5.60;99.90;;;;;;4997772;28;20035;-80
2020/12/29 10:58:42;;;;;;;17.02;9.77;;;5.60;99.90;;;;;;4997967;28;20022;-79
2020/12/29 11:01:13;;;;;;;21.23;10.98;;;5.60;99.90;;;;;;4995996;28;20033;-79
2020/12/29 11:03:39;;;;;;;19.73;10.32;;;5.60;99.90;;;;;;4995712;28;20026;-80
2020/12/29 11:06:22;;;;;;;20.13;10.63;;;5.70;99.90;;;;;;4995844;28;20030;-80
2020/12/29 11:08:49;;;;;;;17.60;10.77;;;5.70;99.90;;;;;;4997307;28;20031;-80
2020/12/29 11:11:15;;;;;;;20.40;10.20;;;5.80;99.90;;;;;;5003490;28;20058;-80
2020/12/29 11:13:42;;;;;;;16.35;9.50;;;5.80;99.90;;;;;;4986250;28;20474;-80
2020/12/29 11:16:14;;;;;;;21.95;11.57;;;5.80;99.90;;;;;;4995223;28;20035;-80
2020/12/29 11:18:39;;;;;;;22.45;11.70;;;5.80;99.90;;;;;;4996072;28;20029;-79
2020/12/29 11:21:05;;;;;;;18.75;10.98;;;5.80;99.90;;;;;;4978265;28;20467;-80
2020/12/29 11:23:30;;;;;;;17.58;10.88;;;5.80;99.90;;;;;;4997120;28;20026;-80
2020/12/29 11:25:59;;;;;;;20.60;10.82;;;5.80;99.90;;;;;;4996336;28;20045;-79
2020/12/29 11:28:25;;;;;;;22.30;12.20;;;5.90;99.90;;;;;;4996114;28;20057;-79
2020/12/29 11:30:51;;;;;;;29.17;13.02;;;5.90;99.90;;;;;;4996115;28;20042;-80
2020/12/29 11:33:17;;;;;;;28.20;13.82;;;5.90;99.90;;;;;;4995666;28;20030;-79
2020/12/29 11:35:44;;;;;;;31.23;14.80;;;5.90;99.90;;;;;;4995492;28;20046;-79
2020/12/29 11:38:10;;;;;;;34.70;15.93;;;6.00;99.90;;;;;;4994695;28;20023;-79
2020/12/29 11:40:35;;;;;;;30.77;16.95;;;6.00;99.90;;;;;;4996660;28;20473;-79
2020/12/29 11:43:01;;;;;;;36.72;17.92;;;6.10;99.90;;;;;;4995917;28;20518;-79
2020/12/29 11:45:27;;;;;;;39.95;19.13;;;6.10;99.90;;;;;;4995577;28;20403;-80
2020/12/29 11:47:53;;;;;;;30.00;17.05;;;6.10;99.90;;;;;;4995207;28;20125;-80
2020/12/29 11:50:18;;;;;;;36.05;18.13;;;6.20;99.90;;;;;;4992937;28;20038;-80
2020/12/29 11:52:44;;;;;;;33.90;17.38;;;6.20;99.90;;;;;;4996227;28;20132;-79
2020/12/29 11:55:10;;;;;;;34.85;17.80;;;6.20;99.90;;;;;;4996014;28;20351;-79
2020/12/29 11:57:37;;;;;;;30.15;16.83;;;6.20;99.90;;;;;;4995620;28;20069;-79
2020/12/29 12:00:06;;;;;;;29.85;16.23;;;6.10;99.90;;;;;;4994856;28;20406;-80
2020/12/29 12:02:31;;;;;;;36.28;15.98;;;6.20;99.90;;;;;;4996659;28;20049;-79
2020/12/29 12:04:57;;;;;;;26.55;15.13;;;6.20;99.90;;;;;;4996364;28;20023;-79
2020/12/29 12:07:23;;;;;;;29.83;15.75;;;6.30;99.90;;;;;;4998171;28;20166;-79
2020/12/29 12:09:48;;;;;;;24.73;14.10;;;6.20;99.90;;;;;;5006894;28;20042;-79
2020/12/29 12:12:14;;;;;;;21.55;12.68;;;6.20;99.90;;;;;;5007881;28;20018;-80
2020/12/29 12:14:39;;;;;;;23.42;12.98;;;6.20;99.90;;;;;;5014403;28;20064;-79
2020/12/29 12:17:05;;;;;;;20.42;12.27;;;6.20;99.90;;;;;;5019987;28;20054;-79
2020/12/29 12:19:30;;;;;;;18.80;12.57;;;6.20;99.90;;;;;;5020059;28;20026;-80
2020/12/29 12:21:56;;;;;;;18.05;10.65;;;6.30;99.90;;;;;;5029650;28;20011;-81
2020/12/29 12:24:22;;;;;;;17.08;10.75;;;6.30;99.90;;;;;;5019665;28;20045;-80
2020/12/29 12:26:47;;;;;;;19.33;11.07;;;6.40;99.90;;;;;;5004660;28;20022;-79
2020/12/29 12:29:13;;;;;;;18.17;9.65;;;6.40;99.90;;;;;;4998522;28;20069;-80
2020/12/29 12:31:38;;;;;;;14.98;9.57;;;6.50;99.90;;;;;;4998579;28;20487;-81
2020/12/29 12:34:04;;;;;;;19.55;9.07;;;6.50;99.90;;;;;;4995902;28;20042;-80
2020/12/29 12:36:30;;;;;;;14.18;9.65;;;6.50;99.90;;;;;;4995711;28;20364;-79
2020/12/29 12:38:55;;;;;;;16.15;9.82;;;6.60;99.90;;;;;;4996419;28;20027;-80
2020/12/29 12:41:21;;;;;;;14.30;9.15;;;6.60;99.90;;;;;;4995266;28;20121;-80